sensor_id;sensor_type;location;lat;lon;timestamp;P1;durP1;ratioP1;P2;durP2;ratioP2
8102;SDS011;4094;49.948;11.574;2023-02-28T00:01:58;11.17;;;10.40;;
8102;SDS011;4094;49.948;11.574;2023-02-28T00:04:27;11.80;;;11.00;;
8102;SDS011;4094;49.948;11.574;2023-02-28T00:06:56;11.23;;;10.53;;
8102;SDS011;4094;49.948;11.574;2023-02-28T00:09:25;11.73;;;10.87;;
8102;SDS011;4094;49.948;11.574;2023-02-28T00:11:54;11.23;;;10.53;;
8102;SDS011;4094;49.948;11.574;2023-02-28T00:14:23;10.73;;;10.13;;
8102;SDS011;4094;49.948;11.574;2023-02-28T00:16:53;11.30;;;10.60;;
8102;SDS011;4094;49.948;11.574;2023-02-28T00:19:22;11.30;;;10.50;;
8102;SDS011;4094;49.948;11.574;2023-02-28T00:21:51;11.83;;;11.20;;
8102;SDS011;4094;49.948;11.574;2023-02-28T00:24:20;11.87;;;11.13;;
8102;SDS011;4094;49.948;11.574;2023-02-28T00:26:49;11.27;;;10.57;;
8102;SDS011;4094;49.948;11.574;2023-02-28T00:29:17;11.90;;;10.93;;
8102;SDS011;4094;49.948;11.574;2023-02-28T00:31:46;12.77;;;11.90;;
8102;SDS011;4094;49.948;11.574;2023-02-28T00:34:17;14.80;;;13.60;;
8102;SDS011;4094;49.948;11.574;2023-02-28T00:36:46;18.60;;;16.57;;
8102;SDS011;4094;49.948;11.574;2023-02-28T00:39:17;18.70;;;16.80;;
8102;SDS011;4094;49.948;11.574;2023-02-28T00:41:46;22.87;;;17.83;;
8102;SDS011;4094;49.948;11.574;2023-02-28T00:44:15;26.63;;;20.87;;
8102;SDS011;4094;49.948;11.574;2023-02-28T00:46:43;29.23;;;21.03;;
8102;SDS011;4094;49.948;11.574;2023-02-28T00:49:12;25.33;;;19.40;;
8102;SDS011;4094;49.948;11.574;2023-02-28T00:51:43;39.77;;;24.77;;
8102;SDS011;4094;49.948;11.574;2023-02-28T00:54:12;53.43;;;30.00;;
8102;SDS011;4094;49.948;11.574;2023-02-28T00:56:41;52.20;;;30.57;;
8102;SDS011;4094;49.948;11.574;2023-02-28T00:59:10;35.90;;;23.17;;
8102;SDS011;4094;49.948;11.574;2023-02-28T01:01:39;17.93;;;16.07;;
8102;SDS011;4094;49.948;11.574;2023-02-28T01:04:08;14.33;;;12.93;;
8102;SDS011;4094;49.948;11.574;2023-02-28T01:06:37;12.33;;;11.40;;
8102;SDS011;4094;49.948;11.574;2023-02-28T01:09:11;11.63;;;10.90;;
8102;SDS011;4094;49.948;11.574;2023-02-28T01:11:42;12.00;;;11.10;;
8102;SDS011;4094;49.948;11.574;2023-02-28T01:14:12;12.47;;;11.67;;
8102;SDS011;4094;49.948;11.574;2023-02-28T01:16:42;12.33;;;11.53;;
8102;SDS011;4094;49.948;11.574;2023-02-28T01:19:11;12.83;;;12.00;;
8102;SDS011;4094;49.948;11.574;2023-02-28T01:21:40;12.43;;;11.57;;
8102;SDS011;4094;49.948;11.574;2023-02-28T01:24:09;12.13;;;11.23;;
8102;SDS011;4094;49.948;11.574;2023-02-28T01:26:40;12.17;;;11.40;;
8102;SDS011;4094;49.948;11.574;2023-02-28T01:29:09;12.57;;;11.67;;
8102;SDS011;4094;49.948;11.574;2023-02-28T01:31:38;11.97;;;11.17;;
8102;SDS011;4094;49.948;11.574;2023-02-28T01:34:08;11.93;;;11.23;;
8102;SDS011;4094;49.948;11.574;2023-02-28T01:36:37;12.77;;;11.60;;
8102;SDS011;4094;49.948;11.574;2023-02-28T01:39:06;12.57;;;11.67;;
8102;SDS011;4094;49.948;11.574;2023-02-28T01:41:35;13.03;;;12.13;;
8102;SDS011;4094;49.948;11.574;2023-02-28T01:44:06;12.17;;;11.27;;
8102;SDS011;4094;49.948;11.574;2023-02-28T01:46:56;12.27;;;11.43;;
8102;SDS011;4094;49.948;11.574;2023-02-28T01:49:24;11.97;;;11.27;;
8102;SDS011;4094;49.948;11.574;2023-02-28T01:51:54;12.70;;;11.80;;
8102;SDS011;4094;49.948;11.574;2023-02-28T01:54:25;12.67;;;11.77;;
8102;SDS011;4094;49.948;11.574;2023-02-28T01:56:59;12.17;;;11.47;;
8102;SDS011;4094;49.948;11.574;2023-02-28T01:59:34;12.23;;;11.27;;
8102;SDS011;4094;49.948;11.574;2023-02-28T02:02:07;12.50;;;11.60;;
8102;SDS011;4094;49.948;11.574;2023-02-28T02:04:37;12.20;;;11.47;;
8102;SDS011;4094;49.948;11.574;2023-02-28T02:07:10;11.90;;;11.00;;
8102;SDS011;4094;49.948;11.574;2023-02-28T02:09:44;12.60;;;11.80;;
8102;SDS011;4094;49.948;11.574;2023-02-28T02:12:15;12.80;;;11.90;;
8102;SDS011;4094;49.948;11.574;2023-02-28T02:14:57;12.93;;;12.03;;
8102;SDS011;4094;49.948;11.574;2023-02-28T02:17:33;12.73;;;11.87;;
8102;SDS011;4094;49.948;11.574;2023-02-28T02:23:20;13.03;;;12.13;;
8102;SDS011;4094;49.948;11.574;2023-02-28T02:26:20;13.10;;;12.17;;
8102;SDS011;4094;49.948;11.574;2023-02-28T02:32:14;13.67;;;12.70;;
8102;SDS011;4094;49.948;11.574;2023-02-28T02:35:07;12.77;;;11.97;;
8102;SDS011;4094;49.948;11.574;2023-02-28T02:37:43;13.37;;;12.40;;
8102;SDS011;4094;49.948;11.574;2023-02-28T02:40:18;13.13;;;12.20;;
8102;SDS011;4094;49.948;11.574;2023-02-28T02:42:50;12.83;;;11.73;;
8102;SDS011;4094;49.948;11.574;2023-02-28T02:45:25;12.13;;;11.40;;
8102;SDS011;4094;49.948;11.574;2023-02-28T02:47:56;11.83;;;10.97;;
8102;SDS011;4094;49.948;11.574;2023-02-28T02:50:31;13.10;;;12.20;;
8102;SDS011;4094;49.948;11.574;2023-02-28T02:53:05;12.80;;;12.00;;
8102;SDS011;4094;49.948;11.574;2023-02-28T02:55:39;12.30;;;11.40;;
8102;SDS011;4094;49.948;11.574;2023-02-28T02:58:14;12.60;;;11.70;;
8102;SDS011;4094;49.948;11.574;2023-02-28T03:00:46;13.37;;;12.27;;
8102;SDS011;4094;49.948;11.574;2023-02-28T03:03:19;13.07;;;12.07;;
8102;SDS011;4094;49.948;11.574;2023-02-28T03:05:58;12.73;;;11.80;;
8102;SDS011;4094;49.948;11.574;2023-02-28T03:08:29;12.40;;;11.50;;
8102;SDS011;4094;49.948;11.574;2023-02-28T03:11:05;13.10;;;12.30;;
8102;SDS011;4094;49.948;11.574;2023-02-28T03:13:49;12.77;;;11.77;;
8102;SDS011;4094;49.948;11.574;2023-02-28T03:16:32;13.10;;;12.23;;
8102;SDS011;4094;49.948;11.574;2023-02-28T03:19:13;12.73;;;11.93;;
8102;SDS011;4094;49.948;11.574;2023-02-28T03:21:58;12.87;;;11.87;;
8102;SDS011;4094;49.948;11.574;2023-02-28T03:24:43;13.20;;;12.13;;
8102;SDS011;4094;49.948;11.574;2023-02-28T03:27:21;12.53;;;11.63;;
8102;SDS011;4094;49.948;11.574;2023-02-28T03:29:55;12.70;;;11.80;;
8102;SDS011;4094;49.948;11.574;2023-02-28T03:32:29;12.53;;;11.73;;
8102;SDS011;4094;49.948;11.574;2023-02-28T03:35:05;12.50;;;11.67;;
8102;SDS011;4094;49.948;11.574;2023-02-28T03:37:40;12.57;;;11.73;;
8102;SDS011;4094;49.948;11.574;2023-02-28T03:40:12;13.13;;;12.17;;
8102;SDS011;4094;49.948;11.574;2023-02-28T03:42:45;13.13;;;12.23;;
8102;SDS011;4094;49.948;11.574;2023-02-28T03:45:18;13.00;;;12.00;;
8102;SDS011;4094;49.948;11.574;2023-02-28T03:47:51;12.37;;;11.57;;
8102;SDS011;4094;49.948;11.574;2023-02-28T03:50:21;12.93;;;12.03;;
8102;SDS011;4094;49.948;11.574;2023-02-28T03:52:55;12.80;;;11.80;;
8102;SDS011;4094;49.948;11.574;2023-02-28T03:55:32;13.43;;;12.43;;
8102;SDS011;4094;49.948;11.574;2023-02-28T03:58:08;14.77;;;13.57;;
8102;SDS011;4094;49.948;11.574;2023-02-28T04:00:43;14.17;;;12.87;;
8102;SDS011;4094;49.948;11.574;2023-02-28T04:03:15;14.67;;;13.47;;
8102;SDS011;4094;49.948;11.574;2023-02-28T04:05:46;14.17;;;13.17;;
8102;SDS011;4094;49.948;11.574;2023-02-28T04:08:19;13.80;;;12.73;;
8102;SDS011;4094;49.948;11.574;2023-02-28T04:10:51;13.87;;;12.67;;
8102;SDS011;4094;49.948;11.574;2023-02-28T04:13:24;14.13;;;13.03;;
8102;SDS011;4094;49.948;11.574;2023-02-28T04:15:53;14.23;;;13.13;;
8102;SDS011;4094;49.948;11.574;2023-02-28T04:18:23;12.67;;;11.67;;
8102;SDS011;4094;49.948;11.574;2023-02-28T04:20:52;13.57;;;12.67;;
8102;SDS011;4094;49.948;11.574;2023-02-28T04:23:22;13.20;;;12.30;;
8102;SDS011;4094;49.948;11.574;2023-02-28T04:25:54;13.60;;;12.70;;
8102;SDS011;4094;49.948;11.574;2023-02-28T04:28:23;14.23;;;13.23;;
8102;SDS011;4094;49.948;11.574;2023-02-28T04:30:55;14.00;;;13.00;;
8102;SDS011;4094;49.948;11.574;2023-02-28T04:33:25;13.80;;;12.90;;
8102;SDS011;4094;49.948;11.574;2023-02-28T04:35:59;15.27;;;14.17;;
8102;SDS011;4094;49.948;11.574;2023-02-28T04:38:31;15.80;;;14.60;;
8102;SDS011;4094;49.948;11.574;2023-02-28T04:41:01;15.27;;;14.07;;
8102;SDS011;4094;49.948;11.574;2023-02-28T04:43:31;14.67;;;13.63;;
8102;SDS011;4094;49.948;11.574;2023-02-28T04:46:01;14.30;;;13.30;;
8102;SDS011;4094;49.948;11.574;2023-02-28T04:48:32;14.90;;;13.77;;
8102;SDS011;4094;49.948;11.574;2023-02-28T04:51:02;15.50;;;14.30;;
8102;SDS011;4094;49.948;11.574;2023-02-28T04:53:34;14.60;;;13.60;;
8102;SDS011;4094;49.948;11.574;2023-02-28T04:56:03;14.97;;;13.73;;
8102;SDS011;4094;49.948;11.574;2023-02-28T04:58:34;15.03;;;13.83;;
8102;SDS011;4094;49.948;11.574;2023-02-28T05:01:04;15.27;;;14.17;;
8102;SDS011;4094;49.948;11.574;2023-02-28T05:03:39;14.73;;;13.63;;
8102;SDS011;4094;49.948;11.574;2023-02-28T05:06:09;15.77;;;14.53;;
8102;SDS011;4094;49.948;11.574;2023-02-28T05:08:40;14.93;;;13.83;;
8102;SDS011;4094;49.948;11.574;2023-02-28T05:11:12;15.23;;;14.10;;
8102;SDS011;4094;49.948;11.574;2023-02-28T05:13:44;15.30;;;14.10;;
8102;SDS011;4094;49.948;11.574;2023-02-28T05:16:13;14.90;;;13.80;;
8102;SDS011;4094;49.948;11.574;2023-02-28T05:18:42;15.30;;;14.00;;
8102;SDS011;4094;49.948;11.574;2023-02-28T05:21:22;14.57;;;13.47;;
8102;SDS011;4094;49.948;11.574;2023-02-28T05:23:55;14.00;;;13.00;;
8102;SDS011;4094;49.948;11.574;2023-02-28T05:26:25;15.10;;;14.03;;
8102;SDS011;4094;49.948;11.574;2023-02-28T05:28:55;15.00;;;13.90;;
8102;SDS011;4094;49.948;11.574;2023-02-28T05:31:24;15.83;;;14.53;;
8102;SDS011;4094;49.948;11.574;2023-02-28T05:33:54;15.40;;;14.20;;
8102;SDS011;4094;49.948;11.574;2023-02-28T05:36:24;15.70;;;14.50;;
8102;SDS011;4094;49.948;11.574;2023-02-28T05:38:54;16.17;;;14.83;;
8102;SDS011;4094;49.948;11.574;2023-02-28T05:41:23;14.50;;;13.50;;
8102;SDS011;4094;49.948;11.574;2023-02-28T05:43:53;15.73;;;14.50;;
8102;SDS011;4094;49.948;11.574;2023-02-28T05:46:22;15.60;;;14.20;;
8102;SDS011;4094;49.948;11.574;2023-02-28T05:48:52;15.07;;;13.87;;
8102;SDS011;4094;49.948;11.574;2023-02-28T05:51:21;15.63;;;14.47;;
8102;SDS011;4094;49.948;11.574;2023-02-28T05:53:50;15.20;;;14.00;;
8102;SDS011;4094;49.948;11.574;2023-02-28T05:56:21;15.77;;;14.60;;
8102;SDS011;4094;49.948;11.574;2023-02-28T05:58:50;15.53;;;14.20;;
8102;SDS011;4094;49.948;11.574;2023-02-28T06:01:20;14.97;;;13.83;;
8102;SDS011;4094;49.948;11.574;2023-02-28T06:03:53;15.53;;;14.23;;
8102;SDS011;4094;49.948;11.574;2023-02-28T06:06:23;15.63;;;14.33;;
8102;SDS011;4094;49.948;11.574;2023-02-28T06:08:52;16.40;;;14.87;;
8102;SDS011;4094;49.948;11.574;2023-02-28T06:11:22;15.87;;;14.70;;
8102;SDS011;4094;49.948;11.574;2023-02-28T06:13:55;16.63;;;15.07;;
8102;SDS011;4094;49.948;11.574;2023-02-28T06:16:27;16.33;;;14.93;;
8102;SDS011;4094;49.948;11.574;2023-02-28T06:18:57;16.40;;;15.00;;
8102;SDS011;4094;49.948;11.574;2023-02-28T06:21:27;17.03;;;15.53;;
8102;SDS011;4094;49.948;11.574;2023-02-28T06:23:58;17.07;;;15.53;;
8102;SDS011;4094;49.948;11.574;2023-02-28T06:26:31;16.60;;;15.40;;
8102;SDS011;4094;49.948;11.574;2023-02-28T06:29:00;16.77;;;15.47;;
8102;SDS011;4094;49.948;11.574;2023-02-28T06:31:30;16.27;;;15.03;;
8102;SDS011;4094;49.948;11.574;2023-02-28T06:33:59;16.13;;;14.97;;
8102;SDS011;4094;49.948;11.574;2023-02-28T06:36:28;16.90;;;15.53;;
8102;SDS011;4094;49.948;11.574;2023-02-28T06:38:57;17.27;;;15.97;;
8102;SDS011;4094;49.948;11.574;2023-02-28T06:41:26;16.47;;;15.07;;
8102;SDS011;4094;49.948;11.574;2023-02-28T06:44:02;17.23;;;15.73;;
8102;SDS011;4094;49.948;11.574;2023-02-28T06:46:31;17.00;;;15.60;;
8102;SDS011;4094;49.948;11.574;2023-02-28T06:49:01;17.30;;;15.83;;
8102;SDS011;4094;49.948;11.574;2023-02-28T06:51:31;16.57;;;15.20;;
8102;SDS011;4094;49.948;11.574;2023-02-28T06:54:00;16.93;;;15.43;;
8102;SDS011;4094;49.948;11.574;2023-02-28T06:56:29;16.80;;;15.40;;
8102;SDS011;4094;49.948;11.574;2023-02-28T06:58:58;16.30;;;15.10;;
8102;SDS011;4094;49.948;11.574;2023-02-28T07:01:28;16.43;;;14.97;;
8102;SDS011;4094;49.948;11.574;2023-02-28T07:03:59;15.33;;;14.00;;
8102;SDS011;4094;49.948;11.574;2023-02-28T07:06:28;17.13;;;15.73;;
8102;SDS011;4094;49.948;11.574;2023-02-28T07:08:58;16.97;;;15.57;;
8102;SDS011;4094;49.948;11.574;2023-02-28T07:11:27;16.20;;;14.87;;
8102;SDS011;4094;49.948;11.574;2023-02-28T07:13:57;16.80;;;15.40;;
8102;SDS011;4094;49.948;11.574;2023-02-28T07:16:26;16.53;;;15.10;;
8102;SDS011;4094;49.948;11.574;2023-02-28T07:18:57;16.60;;;15.30;;
8102;SDS011;4094;49.948;11.574;2023-02-28T07:21:26;16.37;;;14.97;;
8102;SDS011;4094;49.948;11.574;2023-02-28T07:23:55;16.87;;;15.47;;
8102;SDS011;4094;49.948;11.574;2023-02-28T07:26:25;16.93;;;15.53;;
8102;SDS011;4094;49.948;11.574;2023-02-28T07:28:54;16.67;;;15.27;;
8102;SDS011;4094;49.948;11.574;2023-02-28T07:31:23;16.87;;;15.47;;
8102;SDS011;4094;49.948;11.574;2023-02-28T07:33:53;16.67;;;15.23;;
8102;SDS011;4094;49.948;11.574;2023-02-28T07:36:24;15.97;;;14.57;;
8102;SDS011;4094;49.948;11.574;2023-02-28T07:38:53;16.47;;;15.27;;
8102;SDS011;4094;49.948;11.574;2023-02-28T07:41:22;16.57;;;15.20;;
8102;SDS011;4094;49.948;11.574;2023-02-28T07:43:55;16.27;;;14.90;;
8102;SDS011;4094;49.948;11.574;2023-02-28T07:46:26;16.63;;;15.20;;
8102;SDS011;4094;49.948;11.574;2023-02-28T07:48:58;16.90;;;15.33;;
8102;SDS011;4094;49.948;11.574;2023-02-28T07:51:27;17.73;;;16.23;;
8102;SDS011;4094;49.948;11.574;2023-02-28T07:53:58;17.53;;;15.93;;
8102;SDS011;4094;49.948;11.574;2023-02-28T07:56:27;17.60;;;15.90;;
8102;SDS011;4094;49.948;11.574;2023-02-28T07:58:56;17.10;;;15.70;;
8102;SDS011;4094;49.948;11.574;2023-02-28T08:01:26;16.50;;;15.10;;
8102;SDS011;4094;49.948;11.574;2023-02-28T08:03:56;16.43;;;15.07;;
8102;SDS011;4094;49.948;11.574;2023-02-28T08:06:26;17.57;;;16.00;;
8102;SDS011;4094;49.948;11.574;2023-02-28T08:08:55;16.23;;;14.83;;
8102;SDS011;4094;49.948;11.574;2023-02-28T08:11:25;16.50;;;15.10;;
8102;SDS011;4094;49.948;11.574;2023-02-28T08:13:55;16.20;;;14.90;;
8102;SDS011;4094;49.948;11.574;2023-02-28T08:16:24;16.33;;;15.10;;
8102;SDS011;4094;49.948;11.574;2023-02-28T08:18:53;16.63;;;15.33;;
8102;SDS011;4094;49.948;11.574;2023-02-28T08:21:22;15.67;;;14.27;;
8102;SDS011;4094;49.948;11.574;2023-02-28T08:23:54;16.10;;;14.70;;
8102;SDS011;4094;49.948;11.574;2023-02-28T08:26:23;15.07;;;13.83;;
8102;SDS011;4094;49.948;11.574;2023-02-28T08:28:53;15.70;;;14.50;;
8102;SDS011;4094;49.948;11.574;2023-02-28T08:31:24;16.70;;;15.17;;
8102;SDS011;4094;49.948;11.574;2023-02-28T08:33:53;15.83;;;14.53;;
8102;SDS011;4094;49.948;11.574;2023-02-28T08:36:26;14.63;;;13.43;;
8102;SDS011;4094;49.948;11.574;2023-02-28T08:38:57;14.67;;;13.47;;
8102;SDS011;4094;49.948;11.574;2023-02-28T08:41:27;14.27;;;13.13;;
8102;SDS011;4094;49.948;11.574;2023-02-28T08:43:56;14.40;;;13.23;;
8102;SDS011;4094;49.948;11.574;2023-02-28T08:46:25;14.60;;;13.17;;
8102;SDS011;4094;49.948;11.574;2023-02-28T08:48:55;14.13;;;13.03;;
8102;SDS011;4094;49.948;11.574;2023-02-28T08:51:28;14.10;;;12.93;;
8102;SDS011;4094;49.948;11.574;2023-02-28T08:53:59;13.20;;;12.20;;
8102;SDS011;4094;49.948;11.574;2023-02-28T08:56:28;14.83;;;13.53;;
8102;SDS011;4094;49.948;11.574;2023-02-28T08:58:58;14.10;;;12.80;;
8102;SDS011;4094;49.948;11.574;2023-02-28T09:01:27;13.67;;;12.57;;
8102;SDS011;4094;49.948;11.574;2023-02-28T09:03:59;13.37;;;12.37;;
8102;SDS011;4094;49.948;11.574;2023-02-28T09:06:29;13.70;;;12.43;;
8102;SDS011;4094;49.948;11.574;2023-02-28T09:09:01;13.50;;;12.50;;
8102;SDS011;4094;49.948;11.574;2023-02-28T09:11:33;14.50;;;13.30;;
8102;SDS011;4094;49.948;11.574;2023-02-28T09:14:03;14.17;;;13.07;;
8102;SDS011;4094;49.948;11.574;2023-02-28T09:16:33;14.20;;;13.10;;
8102;SDS011;4094;49.948;11.574;2023-02-28T09:19:04;13.87;;;12.77;;
8102;SDS011;4094;49.948;11.574;2023-02-28T09:21:32;14.00;;;12.83;;
8102;SDS011;4094;49.948;11.574;2023-02-28T09:24:04;14.40;;;13.13;;
8102;SDS011;4094;49.948;11.574;2023-02-28T09:26:33;13.57;;;12.50;;
8102;SDS011;4094;49.948;11.574;2023-02-28T09:29:09;14.70;;;13.50;;
8102;SDS011;4094;49.948;11.574;2023-02-28T09:31:39;14.97;;;13.77;;
8102;SDS011;4094;49.948;11.574;2023-02-28T09:34:09;14.90;;;13.67;;
8102;SDS011;4094;49.948;11.574;2023-02-28T09:36:39;14.53;;;13.33;;
8102;SDS011;4094;49.948;11.574;2023-02-28T09:39:14;14.00;;;12.90;;
8102;SDS011;4094;49.948;11.574;2023-02-28T09:41:44;14.47;;;13.17;;
8102;SDS011;4094;49.948;11.574;2023-02-28T09:44:20;14.83;;;13.63;;
8102;SDS011;4094;49.948;11.574;2023-02-28T09:46:57;14.83;;;13.63;;
8102;SDS011;4094;49.948;11.574;2023-02-28T09:49:31;14.70;;;13.60;;
8102;SDS011;4094;49.948;11.574;2023-02-28T09:52:06;14.67;;;13.57;;
8102;SDS011;4094;49.948;11.574;2023-02-28T09:54:39;14.00;;;12.80;;
8102;SDS011;4094;49.948;11.574;2023-02-28T09:57:11;14.07;;;12.97;;
8102;SDS011;4094;49.948;11.574;2023-02-28T09:59:51;14.33;;;13.23;;
8102;SDS011;4094;49.948;11.574;2023-02-28T10:02:47;13.50;;;12.43;;
8102;SDS011;4094;49.948;11.574;2023-02-28T10:05:33;13.63;;;12.63;;
8102;SDS011;4094;49.948;11.574;2023-02-28T10:08:11;14.23;;;13.10;;
8102;SDS011;4094;49.948;11.574;2023-02-28T10:10:45;13.57;;;12.50;;
8102;SDS011;4094;49.948;11.574;2023-02-28T10:13:19;13.47;;;12.37;;
8102;SDS011;4094;49.948;11.574;2023-02-28T10:15:53;13.27;;;12.17;;
8102;SDS011;4094;49.948;11.574;2023-02-28T10:18:31;13.23;;;12.13;;
8102;SDS011;4094;49.948;11.574;2023-02-28T10:21:13;13.00;;;11.90;;
8102;SDS011;4094;49.948;11.574;2023-02-28T10:23:49;12.73;;;11.73;;
8102;SDS011;4094;49.948;11.574;2023-02-28T10:26:26;11.63;;;10.63;;
8102;SDS011;4094;49.948;11.574;2023-02-28T10:28:59;12.27;;;11.10;;
8102;SDS011;4094;49.948;11.574;2023-02-28T10:31:30;11.60;;;10.53;;
8102;SDS011;4094;49.948;11.574;2023-02-28T10:33:59;11.67;;;10.77;;
8102;SDS011;4094;49.948;11.574;2023-02-28T10:36:28;11.40;;;10.50;;
8102;SDS011;4094;49.948;11.574;2023-02-28T10:38:59;13.13;;;11.93;;
8102;SDS011;4094;49.948;11.574;2023-02-28T10:41:30;11.10;;;10.00;;
8102;SDS011;4094;49.948;11.574;2023-02-28T10:44:13;11.87;;;10.97;;
8102;SDS011;4094;49.948;11.574;2023-02-28T10:46:46;11.07;;;10.17;;
8102;SDS011;4094;49.948;11.574;2023-02-28T10:49:17;10.53;;;9.63;;
8102;SDS011;4094;49.948;11.574;2023-02-28T10:51:51;9.63;;;8.63;;
8102;SDS011;4094;49.948;11.574;2023-02-28T10:54:23;9.43;;;8.60;;
8102;SDS011;4094;49.948;11.574;2023-02-28T10:57:08;10.10;;;9.30;;
8102;SDS011;4094;49.948;11.574;2023-02-28T10:59:45;9.30;;;8.70;;
8102;SDS011;4094;49.948;11.574;2023-02-28T11:02:32;9.77;;;9.00;;
8102;SDS011;4094;49.948;11.574;2023-02-28T11:07:52;9.33;;;8.63;;
8102;SDS011;4094;49.948;11.574;2023-02-28T11:10:24;10.07;;;9.27;;
8102;SDS011;4094;49.948;11.574;2023-02-28T11:12:58;8.67;;;7.87;;
8102;SDS011;4094;49.948;11.574;2023-02-28T11:15:28;8.70;;;7.93;;
8102;SDS011;4094;49.948;11.574;2023-02-28T11:17:59;9.07;;;8.17;;
8102;SDS011;4094;49.948;11.574;2023-02-28T11:20:30;8.27;;;7.57;;
8102;SDS011;4094;49.948;11.574;2023-02-28T11:23:02;9.10;;;8.40;;
8102;SDS011;4094;49.948;11.574;2023-02-28T11:25:34;8.73;;;8.03;;
8102;SDS011;4094;49.948;11.574;2023-02-28T11:28:23;9.10;;;7.80;;
8102;SDS011;4094;49.948;11.574;2023-02-28T11:30:59;7.97;;;7.27;;
8102;SDS011;4094;49.948;11.574;2023-02-28T11:33:43;7.13;;;6.53;;
8102;SDS011;4094;49.948;11.574;2023-02-28T11:36:17;8.33;;;7.50;;
8102;SDS011;4094;49.948;11.574;2023-02-28T11:38:52;7.73;;;7.13;;
8102;SDS011;4094;49.948;11.574;2023-02-28T11:41:36;8.10;;;7.40;;
8102;SDS011;4094;49.948;11.574;2023-02-28T11:44:26;8.17;;;7.47;;
8102;SDS011;4094;49.948;11.574;2023-02-28T11:47:04;7.77;;;7.17;;
8102;SDS011;4094;49.948;11.574;2023-02-28T11:49:41;8.67;;;7.87;;
8102;SDS011;4094;49.948;11.574;2023-02-28T11:52:19;7.57;;;6.80;;
8102;SDS011;4094;49.948;11.574;2023-02-28T11:54:58;8.10;;;7.30;;
8102;SDS011;4094;49.948;11.574;2023-02-28T11:57:36;7.40;;;6.80;;
8102;SDS011;4094;49.948;11.574;2023-02-28T12:00:25;7.47;;;6.77;;
8102;SDS011;4094;49.948;11.574;2023-02-28T12:03:06;7.67;;;6.97;;
8102;SDS011;4094;49.948;11.574;2023-02-28T12:05:45;6.97;;;6.33;;
8102;SDS011;4094;49.948;11.574;2023-02-28T12:08:22;7.10;;;6.40;;
8102;SDS011;4094;49.948;11.574;2023-02-28T12:11:05;7.67;;;6.47;;
8102;SDS011;4094;49.948;11.574;2023-02-28T12:13:43;6.80;;;6.20;;
8102;SDS011;4094;49.948;11.574;2023-02-28T12:16:24;7.13;;;6.10;;
8102;SDS011;4094;49.948;11.574;2023-02-28T12:21:56;7.80;;;6.97;;
8102;SDS011;4094;49.948;11.574;2023-02-28T12:27:50;6.53;;;5.93;;
8102;SDS011;4094;49.948;11.574;2023-02-28T12:30:22;7.00;;;6.40;;
8102;SDS011;4094;49.948;11.574;2023-02-28T12:32:58;6.70;;;6.10;;
8102;SDS011;4094;49.948;11.574;2023-02-28T12:35:32;6.83;;;5.87;;
8102;SDS011;4094;49.948;11.574;2023-02-28T12:38:08;5.93;;;5.33;;
8102;SDS011;4094;49.948;11.574;2023-02-28T12:40:43;6.03;;;5.43;;
8102;SDS011;4094;49.948;11.574;2023-02-28T12:43:16;5.33;;;4.80;;
8102;SDS011;4094;49.948;11.574;2023-02-28T12:45:48;5.73;;;5.23;;
8102;SDS011;4094;49.948;11.574;2023-02-28T12:48:24;5.63;;;5.13;;
8102;SDS011;4094;49.948;11.574;2023-02-28T12:50:57;5.77;;;5.23;;
8102;SDS011;4094;49.948;11.574;2023-02-28T12:53:31;5.43;;;4.90;;
8102;SDS011;4094;49.948;11.574;2023-02-28T12:56:12;6.10;;;5.53;;
8102;SDS011;4094;49.948;11.574;2023-02-28T12:58:47;6.27;;;5.67;;
8102;SDS011;4094;49.948;11.574;2023-02-28T13:04:29;8.20;;;6.10;;
8102;SDS011;4094;49.948;11.574;2023-02-28T13:07:13;6.60;;;6.10;;
8102;SDS011;4094;49.948;11.574;2023-02-28T13:09:57;6.90;;;6.27;;
8102;SDS011;4094;49.948;11.574;2023-02-28T13:12:28;6.33;;;5.73;;
8102;SDS011;4094;49.948;11.574;2023-02-28T13:15:02;6.73;;;6.13;;
8102;SDS011;4094;49.948;11.574;2023-02-28T13:17:38;7.40;;;6.80;;
8102;SDS011;4094;49.948;11.574;2023-02-28T13:20:16;7.03;;;6.43;;
8102;SDS011;4094;49.948;11.574;2023-02-28T13:22:47;7.70;;;7.03;;
8102;SDS011;4094;49.948;11.574;2023-02-28T13:34:41;8.43;;;7.73;;
8102;SDS011;4094;49.948;11.574;2023-02-28T13:37:37;11.70;;;10.70;;
8102;SDS011;4094;49.948;11.574;2023-02-28T13:40:27;10.40;;;9.50;;
8102;SDS011;4094;49.948;11.574;2023-02-28T13:43:07;10.30;;;9.33;;
8102;SDS011;4094;49.948;11.574;2023-02-28T13:45:37;9.93;;;9.13;;
8102;SDS011;4094;49.948;11.574;2023-02-28T13:48:16;10.47;;;9.67;;
8102;SDS011;4094;49.948;11.574;2023-02-28T13:50:47;10.63;;;9.83;;
8102;SDS011;4094;49.948;11.574;2023-02-28T13:53:30;11.07;;;10.27;;
8102;SDS011;4094;49.948;11.574;2023-02-28T13:56:17;10.47;;;9.67;;
8102;SDS011;4094;49.948;11.574;2023-02-28T13:58:55;11.30;;;10.50;;
8102;SDS011;4094;49.948;11.574;2023-02-28T14:01:33;10.90;;;10.10;;
8102;SDS011;4094;49.948;11.574;2023-02-28T14:04:21;11.10;;;10.20;;
8102;SDS011;4094;49.948;11.574;2023-02-28T14:07:16;12.43;;;11.40;;
8102;SDS011;4094;49.948;11.574;2023-02-28T14:09:54;11.13;;;10.23;;
8102;SDS011;4094;49.948;11.574;2023-02-28T14:18:26;11.57;;;10.63;;
8102;SDS011;4094;49.948;11.574;2023-02-28T14:20:59;11.57;;;10.77;;
8102;SDS011;4094;49.948;11.574;2023-02-28T14:23:49;11.93;;;11.10;;
8102;SDS011;4094;49.948;11.574;2023-02-28T14:29:57;12.30;;;11.30;;
8102;SDS011;4094;49.948;11.574;2023-02-28T14:32:35;12.30;;;11.30;;
8102;SDS011;4094;49.948;11.574;2023-02-28T14:35:13;12.70;;;11.70;;
8102;SDS011;4094;49.948;11.574;2023-02-28T14:37:50;11.63;;;10.83;;
8102;SDS011;4094;49.948;11.574;2023-02-28T14:40:23;12.30;;;11.40;;
8102;SDS011;4094;49.948;11.574;2023-02-28T14:43:00;12.20;;;11.30;;
8102;SDS011;4094;49.948;11.574;2023-02-28T14:45:35;12.30;;;11.40;;
8102;SDS011;4094;49.948;11.574;2023-02-28T14:48:08;13.03;;;11.93;;
8102;SDS011;4094;49.948;11.574;2023-02-28T14:50:40;12.70;;;11.80;;
8102;SDS011;4094;49.948;11.574;2023-02-28T14:53:18;12.57;;;11.63;;
8102;SDS011;4094;49.948;11.574;2023-02-28T14:55:49;13.27;;;12.27;;
8102;SDS011;4094;49.948;11.574;2023-02-28T14:58:23;12.60;;;11.70;;
8102;SDS011;4094;49.948;11.574;2023-02-28T15:00:56;12.93;;;11.93;;
8102;SDS011;4094;49.948;11.574;2023-02-28T15:03:30;12.30;;;11.40;;
8102;SDS011;4094;49.948;11.574;2023-02-28T15:06:01;13.43;;;12.33;;
8102;SDS011;4094;49.948;11.574;2023-02-28T15:08:32;13.30;;;12.30;;
8102;SDS011;4094;49.948;11.574;2023-02-28T15:11:04;13.63;;;12.57;;
8102;SDS011;4094;49.948;11.574;2023-02-28T15:13:39;13.50;;;12.33;;
8102;SDS011;4094;49.948;11.574;2023-02-28T15:16:11;13.27;;;12.27;;
8102;SDS011;4094;49.948;11.574;2023-02-28T15:18:46;13.43;;;12.33;;
8102;SDS011;4094;49.948;11.574;2023-02-28T15:21:17;13.17;;;12.20;;
8102;SDS011;4094;49.948;11.574;2023-02-28T15:23:49;13.20;;;12.20;;
8102;SDS011;4094;49.948;11.574;2023-02-28T15:26:23;13.67;;;12.67;;
8102;SDS011;4094;49.948;11.574;2023-02-28T15:28:59;13.80;;;12.77;;
8102;SDS011;4094;49.948;11.574;2023-02-28T15:31:31;14.33;;;13.13;;
8102;SDS011;4094;49.948;11.574;2023-02-28T15:34:21;13.80;;;12.40;;
8102;SDS011;4094;49.948;11.574;2023-02-28T15:36:59;13.63;;;12.60;;
8102;SDS011;4094;49.948;11.574;2023-02-28T15:39:29;13.93;;;12.83;;
8102;SDS011;4094;49.948;11.574;2023-02-28T15:42:10;13.50;;;12.50;;
8102;SDS011;4094;49.948;11.574;2023-02-28T15:44:49;14.33;;;13.23;;
8102;SDS011;4094;49.948;11.574;2023-02-28T15:47:19;14.23;;;13.23;;
8102;SDS011;4094;49.948;11.574;2023-02-28T15:49:51;13.77;;;12.63;;
8102;SDS011;4094;49.948;11.574;2023-02-28T15:52:24;14.07;;;12.87;;